Time;durP1;ratioP1;P1;durP2;ratioP2;P2;SDS_P1;SDS_P2;PMS_P1;PMS_P2;Temp;Humidity;BMP_temperature;BMP_pressure;BME280_temperature;BME280_humidity;BME280_pressure;Samples;Min_cycle;Max_cycle;Signal;HPM_P1;HPM_P2
2021/12/08 00:00:51;;;;;;;0.10;0.10;;;;;;;3.62;88.77;99173.25;5019515;28;20041;-81
2021/12/08 00:03:18;;;;;;;0.17;0.17;;;;;;;3.66;88.72;99173.38;5031730;28;20089;-80
2021/12/08 00:05:45;;;;;;;0.20;0.20;;;;;;;3.69;88.98;99178.63;5028013;28;20026;-78
2021/12/08 00:08:12;;;;;;;0.10;0.10;;;;;;;3.75;88.61;99172.78;5020909;28;20038;-80
2021/12/08 00:13:01;;;;;;;0.00;0.00;;;;;;;3.78;88.70;99167.69;5018928;28;20026;-78
2021/12/08 00:13:36;;;;;;;0.10;0.10;;;;;;;3.82;88.38;99172.13;5018580;28;20351;-73
2021/12/08 00:16:06;;;;;;;0.37;0.37;;;;;;;3.89;88.86;99175.75;5018420;28;20025;-75
2021/12/08 00:18:33;;;;;;;0.10;0.10;;;;;;;3.93;88.61;99168.97;5013042;28;20381;-76
2021/12/08 00:21:01;;;;;;;0.10;0.10;;;;;;;3.93;88.56;99162.03;5006836;28;20033;-75
2021/12/08 00:23:28;;;;;;;0.00;0.00;;;;;;;3.94;88.78;99158.63;5018435;28;20455;-80
2021/12/08 00:25:54;;;;;;;0.10;0.10;;;;;;;3.92;88.73;99142.16;5014068;28;20108;-80
2021/12/08 00:28:20;;;;;;;0.03;0.03;;;;;;;3.98;88.70;99139.75;5018207;28;20041;-79
2021/12/08 00:30:48;;;;;;;0.10;0.10;;;;;;;3.94;88.48;99144.81;5017221;28;20402;-79
2021/12/08 00:33:15;;;;;;;0.00;0.00;;;;;;;3.92;88.89;99151.66;5018067;28;20034;-76
2021/12/08 00:35:41;;;;;;;0.00;0.00;;;;;;;3.92;88.76;99162.03;5017995;28;20328;-78
2021/12/08 00:38:08;;;;;;;0.00;0.00;;;;;;;3.90;88.79;99161.97;5018240;28;20108;-78
2021/12/08 00:40:34;;;;;;;0.00;0.00;;;;;;;3.91;88.97;99158.53;5017842;28;20095;-79
2021/12/08 00:43:00;;;;;;;0.10;0.10;;;;;;;4.01;89.08;99162.28;5017108;28;20456;-78
2021/12/08 00:45:26;;;;;;;0.10;0.10;;;;;;;4.03;88.87;99157.16;5017446;28;20407;-78
2021/12/08 00:47:52;;;;;;;0.10;0.10;;;;;;;4.07;88.90;99153.78;5018557;28;20076;-76
2021/12/08 00:50:22;;;;;;;0.30;0.30;;;;;;;4.08;88.73;99164.22;5017924;28;20022;-77
2021/12/08 00:52:49;;;;;;;0.10;0.10;;;;;;;4.06;88.74;99159.81;5017471;28;20053;-77
2021/12/08 00:55:15;;;;;;;0.00;0.00;;;;;;;4.11;89.11;99174.63;5017394;28;20060;-76
2021/12/08 00:57:42;;;;;;;0.10;0.10;;;;;;;4.13;88.57;99166.91;5017867;28;20034;-78
2021/12/08 01:00:23;;;;;;;0.00;0.00;;;;;;;4.10;88.61;99180.66;5017600;28;20026;-78
2021/12/08 01:02:48;;;;;;;0.10;0.10;;;;;;;4.13;88.29;99179.88;5017783;28;20376;-78
2021/12/08 01:05:17;;;;;;;0.10;0.10;;;;;;;4.13;89.30;99191.09;5016517;28;20183;-76
2021/12/08 02:18:22;;;;;;;0.13;0.13;;;;;;;4.46;87.71;99253.31;5016450;28;20359;-79
2021/12/08 02:20:49;;;;;;;0.10;0.10;;;;;;;4.46;87.64;99254.19;5015680;28;20109;-78
2021/12/08 02:23:15;;;;;;;0.00;0.00;;;;;;;4.52;87.41;99264.75;5000162;28;20026;-77
2021/12/08 02:25:41;;;;;;;0.10;0.10;;;;;;;4.50;87.36;99257.75;5015820;28;20022;-76
2021/12/08 02:28:08;;;;;;;0.10;0.10;;;;;;;4.57;87.05;99263.97;5015708;28;20072;-76
2021/12/08 02:30:49;;;;;;;0.17;0.17;;;;;;;4.62;87.04;99275.38;5015131;28;20362;-70
2021/12/08 02:49:34;;;;;;;0.10;0.10;;;;;;;4.54;87.22;99257.00;5000383;28;20343;-74
2021/12/08 02:52:00;;;;;;;0.10;0.10;;;;;;;4.61;87.23;99258.06;4999516;28;20117;-78
2021/12/08 02:54:32;;;;;;;0.10;0.10;;;;;;;4.58;87.13;99258.84;5004687;28;20037;-68
2021/12/08 02:56:57;;;;;;;0.10;0.10;;;;;;;4.56;86.94;99254.44;5019923;28;20033;-72
2021/12/08 02:59:23;;;;;;;0.10;0.10;;;;;;;4.49;87.05;99271.56;5020128;28;20029;-74
2021/12/08 03:01:48;;;;;;;0.20;0.20;;;;;;;4.48;87.18;99264.63;5019697;28;20076;-74
2021/12/08 03:04:14;;;;;;;0.20;0.20;;;;;;;4.47;86.72;99268.91;5019897;28;20281;-74
2021/12/08 03:06:39;;;;;;;0.10;0.10;;;;;;;4.49;86.38;99263.78;5018856;28;20387;-76
2021/12/08 03:09:06;;;;;;;0.10;0.10;;;;;;;4.48;85.98;99277.59;5020245;28;20057;-75
2021/12/08 03:11:31;;;;;;;0.20;0.20;;;;;;;4.51;84.25;99273.38;5019217;28;20048;-73
2021/12/08 03:13:59;;;;;;;0.30;0.30;;;;;;;4.45;82.72;99265.41;5019769;28;20021;-66
2021/12/08 03:16:24;;;;;;;0.30;0.30;;;;;;;4.46;82.43;99272.34;5017797;28;20045;-76
2021/12/08 03:18:50;;;;;;;0.20;0.20;;;;;;;4.35;83.59;99271.19;5019074;28;20029;-75
2021/12/08 03:21:15;;;;;;;0.23;0.23;;;;;;;4.31;83.83;99266.72;5019231;28;20021;-72
2021/12/08 03:26:32;;;;;;;0.20;0.20;;;;;;;4.24;83.49;99273.47;5008626;28;20034;-72
2021/12/08 03:29:03;;;;;;;0.20;0.20;;;;;;;4.18;84.16;99279.31;5018648;28;20457;-75
2021/12/08 03:31:34;;;;;;;0.43;0.43;;;;;;;4.16;83.42;99272.38;5002654;28;20030;-71
2021/12/08 03:34:00;;;;;;;0.20;0.20;;;;;;;4.11;84.13;99280.00;5019098;28;20075;-72
2021/12/08 03:36:25;;;;;;;0.20;0.20;;;;;;;4.02;84.32;99269.34;5018074;28;20391;-73
2021/12/08 03:38:50;;;;;;;0.20;0.20;;;;;;;3.99;84.63;99277.94;5019218;28;20128;-73
2021/12/08 03:41:16;;;;;;;0.10;0.10;;;;;;;3.97;84.50;99280.47;5018205;28;20414;-71
2021/12/08 03:43:41;;;;;;;0.23;0.23;;;;;;;3.98;84.33;99281.31;5018922;28;20036;-71
2021/12/08 03:46:11;;;;;;;0.10;0.10;;;;;;;3.98;84.36;99289.97;5018486;28;20037;-73
2021/12/08 03:48:45;;;;;;;0.30;0.30;;;;;;;3.96;84.14;99290.75;5017818;28;20368;-75
2021/12/08 03:51:10;;;;;;;0.30;0.30;;;;;;;3.89;84.77;99294.00;5018774;28;20030;-73
2021/12/08 03:53:36;;;;;;;0.20;0.20;;;;;;;3.81;85.07;99294.63;5015332;28;20038;-72
2021/12/08 03:56:02;;;;;;;0.20;0.20;;;;;;;3.74;84.87;99305.63;5016944;28;20661;-72
2021/12/08 03:58:27;;;;;;;0.10;0.10;;;;;;;3.75;84.89;99293.59;5018450;28;20092;-72
2021/12/08 04:00:55;;;;;;;0.20;0.20;;;;;;;3.75;85.15;99297.06;5018209;28;20335;-72
2021/12/08 04:03:21;;;;;;;0.20;0.20;;;;;;;3.79;84.67;99311.00;5017781;28;20065;-71
2021/12/08 04:05:54;;;;;;;0.20;0.20;;;;;;;3.71;84.86;99311.63;5018215;28;20395;-70
2021/12/08 04:08:30;;;;;;;0.20;0.20;;;;;;;3.70;84.73;99308.97;5018413;28;20026;-71
2021/12/08 04:10:55;;;;;;;0.20;0.20;;;;;;;3.75;84.52;99311.72;5018215;28;20049;-74
2021/12/08 04:13:26;;;;;;;0.20;0.20;;;;;;;3.81;84.08;99297.22;5017669;28;20435;-74
2021/12/08 04:15:52;;;;;;;0.20;0.20;;;;;;;3.81;83.65;99305.00;5018568;28;20291;-73
2021/12/08 04:18:18;;;;;;;0.27;0.27;;;;;;;3.79;83.85;99291.13;5018681;28;20034;-74
2021/12/08 04:20:48;;;;;;;0.20;0.20;;;;;;;3.70;84.22;99296.03;5018172;28;20038;-74
2021/12/08 04:23:16;;;;;;;0.20;0.20;;;;;;;3.66;84.35;99300.22;5018831;28;20057;-72
2021/12/08 04:25:44;;;;;;;0.30;0.30;;;;;;;3.65;84.20;99315.72;5016993;28;20315;-71
2021/12/08 04:28:14;;;;;;;0.20;0.20;;;;;;;3.64;84.25;99316.53;5017797;28;20028;-75
2021/12/08 04:30:52;;;;;;;0.20;0.20;;;;;;;3.61;84.19;99319.91;5017256;28;20136;-74
2021/12/08 04:33:17;;;;;;;0.30;0.30;;;;;;;3.53;84.63;99321.38;5018144;28;20052;-74
2021/12/08 04:35:51;;;;;;;0.30;0.30;;;;;;;3.57;84.38;99333.59;5017206;28;20380;-73
2021/12/08 04:38:25;;;;;;;0.20;0.20;;;;;;;3.54;84.25;99339.53;5016812;28;20041;-76
2021/12/08 04:43:34;;;;;;;0.30;0.30;;;;;;;3.51;84.42;99347.22;5018000;28;20379;-73
2021/12/08 04:49:15;;;;;;;0.20;0.20;;;;;;;3.44;84.25;99327.16;5017854;28;20033;-74
2021/12/08 04:51:50;;;;;;;0.20;0.20;;;;;;;3.44;83.82;99319.38;5017482;28;20365;-74
2021/12/08 05:03:05;;;;;;;0.30;0.30;;;;;;;3.27;84.84;99332.63;5017870;28;20423;-71
2021/12/08 05:08:34;;;;;;;0.20;0.20;;;;;;;3.28;84.05;99326.63;5004463;28;20050;-70
2021/12/08 05:11:00;;;;;;;0.20;0.20;;;;;;;3.24;84.18;99331.66;5017236;28;20030;-70
2021/12/08 05:13:26;;;;;;;0.30;0.30;;;;;;;3.27;83.88;99339.50;5017216;28;20045;-71
2021/12/08 05:15:55;;;;;;;0.30;0.30;;;;;;;3.25;83.99;99343.75;5016738;28;20030;-71
2021/12/08 05:18:28;;;;;;;0.23;0.23;;;;;;;3.21;83.72;99342.78;5017411;28;20033;-71
2021/12/08 05:21:24;;;;;;;0.30;0.30;;;;;;;3.22;83.73;99336.75;5017567;28;20036;-70
2021/12/08 05:24:00;;;;;;;0.40;0.40;;;;;;;3.22;83.73;99341.03;5017733;28;20287;-70
2021/12/08 05:26:34;;;;;;;0.20;0.20;;;;;;;3.21;83.82;99341.88;5016671;28;20104;-71
2021/12/08 05:29:06;;;;;;;0.20;0.20;;;;;;;3.12;84.33;99348.50;5016968;28;20112;-69
2021/12/08 05:31:32;;;;;;;0.30;0.30;;;;;;;3.11;84.23;99344.16;5017216;28;20334;-71
2021/12/08 05:33:58;;;;;;;0.30;0.30;;;;;;;3.13;83.85;99350.25;5017589;28;20265;-70
2021/12/08 05:36:24;;;;;;;0.20;0.20;;;;;;;3.08;84.07;99354.41;5017274;28;20583;-72
2021/12/08 05:38:51;;;;;;;0.23;0.23;;;;;;;3.03;84.05;99363.69;5017340;28;20026;-71
2021/12/08 05:41:25;;;;;;;0.20;0.20;;;;;;;3.10;83.36;99385.47;5017059;28;20269;-71
2021/12/08 05:43:50;;;;;;;0.20;0.20;;;;;;;3.16;83.44;99384.00;5017572;28;20279;-71
2021/12/08 05:46:19;;;;;;;0.20;0.20;;;;;;;3.17;83.25;99387.47;5016529;28;20296;-72
2021/12/08 05:48:49;;;;;;;0.20;0.20;;;;;;;3.15;83.38;99390.00;5016653;28;20038;-73
2021/12/08 05:51:21;;;;;;;0.20;0.20;;;;;;;3.15;82.94;99378.78;5016056;28;20284;-68
2021/12/08 05:53:50;;;;;;;0.20;0.20;;;;;;;3.14;83.40;99388.25;5016852;28;20285;-68
2021/12/08 05:56:16;;;;;;;0.20;0.20;;;;;;;3.12;83.15;99379.53;5016591;28;20109;-71
2021/12/08 05:58:42;;;;;;;0.30;0.30;;;;;;;3.11;83.44;99388.13;5015271;28;20045;-66
2021/12/08 06:01:33;;;;;;;0.30;0.30;;;;;;;3.10;83.18;99391.53;5016709;28;20276;-73
2021/12/08 06:04:00;;;;;;;0.20;0.20;;;;;;;3.04;83.52;99395.63;5016532;28;20073;-72
2021/12/08 06:06:26;;;;;;;0.17;0.17;;;;;;;3.02;83.51;99400.75;5016393;28;20383;-72
2021/12/08 06:08:53;;;;;;;0.30;0.30;;;;;;;3.07;82.96;99400.91;5015719;28;20088;-72
2021/12/08 06:11:18;;;;;;;0.30;0.30;;;;;;;3.04;83.16;99395.63;5016742;28;20280;-71
2021/12/08 06:13:46;;;;;;;0.20;0.20;;;;;;;3.04;82.87;99417.19;5016770;28;20191;-73
2021/12/08 06:16:14;;;;;;;0.30;0.30;;;;;;;2.97;83.27;99423.84;5016920;28;20026;-70
2021/12/08 06:18:41;;;;;;;0.20;0.20;;;;;;;2.94;83.29;99428.03;5017712;28;20276;-72
2021/12/08 06:21:11;;;;;;;0.20;0.20;;;;;;;2.90;83.44;99432.22;5020053;28;20367;-71
2021/12/08 06:23:38;;;;;;;0.20;0.20;;;;;;;2.88;83.26;99420.94;5020600;28;20391;-70
2021/12/08 06:26:05;;;;;;;0.20;0.20;;;;;;;2.93;83.26;99441.78;5020158;28;20315;-70
2021/12/08 06:28:30;;;;;;;0.20;0.20;;;;;;;2.89;83.49;99448.56;5020358;28;20288;-72
2021/12/08 06:30:56;;;;;;;0.20;0.20;;;;;;;2.87;83.45;99445.03;5020022;28;20034;-73
2021/12/08 06:33:22;;;;;;;0.20;0.20;;;;;;;2.90;82.82;99439.97;5014513;28;20065;-71
2021/12/08 06:35:51;;;;;;;0.30;0.30;;;;;;;2.93;83.53;99444.38;5011477;28;20307;-70
2021/12/08 06:38:18;;;;;;;0.40;0.40;;;;;;;2.96;83.00;99447.06;5016382;28;20030;-68
2021/12/08 06:40:49;;;;;;;0.30;0.30;;;;;;;2.93;83.13;99447.81;5017824;28;20276;-68
2021/12/08 06:43:20;;;;;;;0.30;0.30;;;;;;;2.97;82.75;99441.06;5031596;28;20288;-68
2021/12/08 06:45:48;;;;;;;0.20;0.20;;;;;;;2.97;83.20;99454.00;5019352;28;20698;-70
2021/12/08 06:48:19;;;;;;;0.30;0.30;;;;;;;2.97;82.88;99443.66;5002362;28;20276;-69
2021/12/08 06:50:51;;;;;;;0.20;0.20;;;;;;;2.99;82.29;99442.88;5020311;28;20276;-70
2021/12/08 06:53:17;;;;;;;0.30;0.30;;;;;;;3.01;82.22;99450.72;5019931;28;20679;-69
2021/12/08 06:55:46;;;;;;;0.20;0.20;;;;;;;3.04;82.17;99442.19;5019442;28;20273;-71
2021/12/08 06:58:18;;;;;;;0.70;0.70;;;;;;;2.98;82.50;99453.16;5019920;28;20502;-71
2021/12/08 07:03:41;;;;;;;0.27;0.27;;;;;;;3.02;82.26;99460.22;5019473;28;20288;-68
2021/12/08 07:06:40;;;;;;;0.30;0.30;;;;;;;2.96;82.46;99460.88;5003938;28;20297;-69
2021/12/08 07:09:04;;;;;;;0.20;0.20;;;;;;;2.92;82.67;99466.75;5012371;28;20327;-70
2021/12/08 07:11:31;;;;;;;0.30;0.30;;;;;;;2.99;82.09;99457.53;5018979;28;20021;-69
2021/12/08 07:13:57;;;;;;;0.33;0.33;;;;;;;2.99;82.19;99463.56;5019278;28;20554;-68
2021/12/08 07:16:26;;;;;;;0.20;0.20;;;;;;;3.02;81.84;99462.81;5019491;28;20281;-71
2021/12/08 07:19:01;;;;;;;0.30;0.30;;;;;;;3.01;81.79;99464.50;5019354;28;20030;-70
2021/12/08 07:21:40;;;;;;;0.23;0.23;;;;;;;2.97;81.92;99466.94;5019253;28;20272;-72
2021/12/08 07:24:13;;;;;;;0.30;0.30;;;;;;;2.91;82.31;99477.06;5019657;28;20356;-71
2021/12/08 07:26:39;;;;;;;0.20;0.20;;;;;;;2.85;82.80;99477.69;5018519;28;20440;-72
2021/12/08 07:29:09;;;;;;;0.20;0.20;;;;;;;2.92;82.87;99478.81;5018568;28;20363;-72
2021/12/08 07:31:39;;;;;;;0.20;0.20;;;;;;;2.92;82.40;99479.69;5018382;28;20408;-72
2021/12/08 07:34:07;;;;;;;0.20;0.20;;;;;;;2.94;82.34;99477.16;5011780;28;20356;-71
2021/12/08 07:36:36;;;;;;;0.20;0.20;;;;;;;2.91;82.54;99485.69;5002891;28;20265;-71
2021/12/08 07:39:06;;;;;;;0.50;0.50;;;;;;;2.90;82.68;99483.94;4999938;28;20266;-71
2021/12/08 07:41:38;;;;;;;0.30;0.30;;;;;;;2.94;82.50;99480.66;4999306;28;20273;-70
2021/12/08 07:44:07;;;;;;;0.40;0.40;;;;;;;2.95;82.54;99485.00;5003494;28;20595;-69
2021/12/08 07:46:49;;;;;;;0.20;0.20;;;;;;;2.93;82.95;99489.19;5011412;28;20316;-70
2021/12/08 07:49:24;;;;;;;0.20;0.20;;;;;;;2.93;82.77;99494.38;5017109;28;20315;-71
2021/12/08 07:52:03;;;;;;;0.20;0.20;;;;;;;2.93;82.57;99481.44;4999153;28;20374;-71
2021/12/08 07:54:31;;;;;;;0.30;0.30;;;;;;;2.95;82.04;99485.00;5017883;28;20360;-70
2021/12/08 07:56:59;;;;;;;0.40;0.40;;;;;;;2.92;82.29;99484.84;5017302;28;20272;-69
2021/12/08 07:59:25;;;;;;;0.40;0.40;;;;;;;2.94;81.78;99480.66;5017828;28;20598;-70
2021/12/08 08:01:53;;;;;;;0.30;0.30;;;;;;;2.91;82.38;99484.81;5017968;28;20272;-67
2021/12/08 08:04:22;;;;;;;0.30;0.30;;;;;;;2.92;82.02;99486.59;5010417;28;20037;-72
2021/12/08 08:06:51;;;;;;;0.27;0.27;;;;;;;2.92;82.17;99490.03;5017387;28;20796;-72
2021/12/08 08:09:24;;;;;;;0.30;0.30;;;;;;;2.95;81.85;99502.19;5010544;28;20600;-74
2021/12/08 08:11:56;;;;;;;0.30;0.30;;;;;;;2.95;82.16;99504.78;4998726;28;20026;-71
2021/12/08 08:14:24;;;;;;;0.43;0.43;;;;;;;2.98;82.09;99495.44;5015637;28;20300;-72
2021/12/08 08:16:55;;;;;;;0.30;0.30;;;;;;;3.00;81.98;99498.09;5022063;28;20316;-71
2021/12/08 08:19:26;;;;;;;0.30;0.30;;;;;;;3.04;82.45;99504.25;5007077;28;20113;-72
2021/12/08 08:21:53;;;;;;;0.30;0.30;;;;;;;3.14;81.80;99509.84;5018322;28;20034;-71
2021/12/08 08:24:19;;;;;;;0.27;0.27;;;;;;;3.21;81.51;99507.47;5018206;28;20384;-72
2021/12/08 08:26:48;;;;;;;0.30;0.30;;;;;;;3.33;81.01;99514.78;5016964;28;20037;-71
2021/12/08 08:29:14;;;;;;;0.30;0.30;;;;;;;3.35;81.17;99514.03;5018456;28;20327;-70
2021/12/08 08:31:43;;;;;;;0.30;0.30;;;;;;;3.36;81.42;99517.50;5017650;28;20026;-71
2021/12/08 08:34:10;;;;;;;0.40;0.40;;;;;;;3.36;81.68;99515.78;5004819;28;20327;-70
2021/12/08 08:36:39;;;;;;;0.30;0.30;;;;;;;3.41;81.18;99522.00;5017495;28;20022;-71
2021/12/08 08:39:10;;;;;;;0.33;0.33;;;;;;;3.43;81.56;99504.81;5016476;28;20072;-71
2021/12/08 08:41:40;;;;;;;0.20;0.20;;;;;;;3.48;81.41;99506.72;5004561;28;20033;-72
2021/12/08 08:44:11;;;;;;;0.30;0.30;;;;;;;3.59;81.26;99509.69;5013731;28;20045;-70
2021/12/08 08:46:41;;;;;;;0.20;0.20;;;;;;;3.71;80.67;99502.34;5010391;28;20079;-69
2021/12/08 08:49:11;;;;;;;0.40;0.40;;;;;;;3.82;80.23;99511.38;5008571;28;20056;-70
2021/12/08 08:51:39;;;;;;;0.30;0.30;;;;;;;3.90;80.20;99510.72;5012656;28;20037;-70
2021/12/08 08:54:13;;;;;;;0.30;0.30;;;;;;;3.92;80.30;99517.72;5004195;28;20022;-71
2021/12/08 08:56:45;;;;;;;0.30;0.30;;;;;;;3.94;80.50;99530.72;5013073;28;20033;-70
2021/12/08 08:59:14;;;;;;;0.30;0.30;;;;;;;3.94;80.40;99523.81;5008995;28;20075;-71
2021/12/08 09:01:45;;;;;;;0.20;0.20;;;;;;;3.98;80.44;99510.16;5015554;28;20020;-73
2021/12/08 09:04:20;;;;;;;0.30;0.30;;;;;;;4.01;79.55;99524.94;5016761;28;20104;-68
2021/12/08 09:06:47;;;;;;;0.30;0.30;;;;;;;4.00;79.86;99530.94;5016412;28;20094;-69
2021/12/08 09:09:17;;;;;;;0.30;0.30;;;;;;;4.00;79.58;99533.53;5002633;28;20038;-69
2021/12/08 09:11:49;;;;;;;0.20;0.20;;;;;;;3.98;79.55;99537.75;4997545;28;20058;-70
2021/12/08 09:14:20;;;;;;;0.30;0.30;;;;;;;3.98;79.44;99532.59;5004347;28;20032;-69
2021/12/08 09:16:51;;;;;;;0.20;0.20;;;;;;;3.97;79.69;99528.22;4997861;28;20101;-70
2021/12/08 09:19:22;;;;;;;0.30;0.30;;;;;;;4.07;78.98;99530.34;5008250;28;20049;-71
2021/12/08 09:21:59;;;;;;;0.40;0.40;;;;;;;4.11;78.19;99532.19;5016962;28;20048;-69
2021/12/08 09:24:34;;;;;;;0.30;0.30;;;;;;;4.11;78.65;99518.34;5016689;28;20055;-71
2021/12/08 09:27:01;;;;;;;0.30;0.30;;;;;;;4.08;78.43;99537.28;5012311;28;20026;-71
2021/12/08 09:29:42;;;;;;;0.30;0.30;;;;;;;4.04;78.92;99537.13;4997263;28;20383;-70
2021/12/08 09:32:19;;;;;;;0.30;0.30;;;;;;;4.08;78.08;99542.44;5003295;28;20172;-71
2021/12/08 09:34:55;;;;;;;0.30;0.30;;;;;;;4.17;77.87;99553.97;5017382;28;20406;-71
2021/12/08 09:37:21;;;;;;;;;;;;;;;4.16;77.98;99560.84;5017167;28;20029;-70
2021/12/08 09:39:51;;;;;;;0.30;0.30;;;;;;;4.10;78.77;99561.50;5014906;28;19913;-73
2021/12/08 09:42:40;;;;;;;0.30;0.30;;;;;;;4.10;77.93;99560.63;5014632;28;20038;-70
2021/12/08 09:45:20;;;;;;;0.30;0.30;;;;;;;4.11;77.54;99558.09;4999561;28;20030;-70
2021/12/08 09:47:45;;;;;;;0.30;0.30;;;;;;;4.06;77.96;99561.34;5016254;28;20277;-72
2021/12/08 09:50:12;;;;;;;0.20;0.20;;;;;;;4.06;77.63;99561.34;5013902;28;20053;-69
2021/12/08 09:52:40;;;;;;;0.30;0.30;;;;;;;4.01;78.46;99581.03;4997481;28;20041;-70
2021/12/08 09:55:08;;;;;;;0.23;0.23;;;;;;;3.96;78.52;99574.00;5019532;28;20124;-70
2021/12/08 09:57:34;;;;;;;0.40;0.40;;;;;;;3.99;77.54;99587.03;5020779;28;20030;-72
2021/12/08 09:59:59;;;;;;;0.30;0.30;;;;;;;3.99;77.37;99583.59;5021212;28;20296;-70
2021/12/08 10:02:32;;;;;;;0.33;0.33;;;;;;;3.98;78.29;99597.34;5018731;28;20367;-72
2021/12/08 10:05:09;;;;;;;0.30;0.30;;;;;;;3.97;78.18;99603.34;5012078;28;20033;-73
2021/12/08 10:07:34;;;;;;;0.30;0.30;;;;;;;3.96;78.09;99607.66;5020386;28;20323;-71
2021/12/08 10:10:00;;;;;;;0.20;0.20;;;;;;;3.97;77.93;99603.34;5020803;28;20030;-76
2021/12/08 10:12:26;;;;;;;0.20;0.20;;;;;;;4.00;78.46;99611.25;5012994;28;20315;-75
2021/12/08 10:14:51;;;;;;;0.30;0.30;;;;;;;3.99;78.46;99612.94;5020936;28;20026;-73
2021/12/08 10:17:18;;;;;;;0.27;0.27;;;;;;;4.04;77.90;99604.47;5019594;28;20350;-69
2021/12/08 10:19:44;;;;;;;0.20;0.20;;;;;;;4.05;77.88;99611.41;5020623;28;20033;-71
2021/12/08 10:22:18;;;;;;;0.23;0.23;;;;;;;4.09;77.91;99621.03;5020465;28;20029;-72
2021/12/08 10:25:01;;;;;;;0.30;0.30;;;;;;;4.12;76.89;99613.41;5020659;28;20337;-68
2021/12/08 10:27:27;;;;;;;0.33;0.33;;;;;;;4.17;77.17;99606.63;5019013;28;20036;-71
2021/12/08 10:29:52;;;;;;;0.20;0.20;;;;;;;4.19;77.24;99599.81;5019653;28;20029;-74
2021/12/08 10:32:17;;;;;;;0.20;0.20;;;;;;;4.24;77.51;99592.22;5016723;28;20026;-73
2021/12/08 10:34:53;;;;;;;0.20;0.20;;;;;;;4.30;76.80;99620.91;5020393;28;20281;-73
2021/12/08 10:37:20;;;;;;;0.30;0.30;;;;;;;4.30;76.47;99609.66;5020667;28;20104;-72
2021/12/08 10:39:49;;;;;;;0.20;0.20;;;;;;;4.28;77.61;99601.84;5017360;28;20125;-74
2021/12/08 10:42:24;;;;;;;0.30;0.30;;;;;;;4.32;77.29;99595.94;5013379;28;20022;-69
2021/12/08 10:45:07;;;;;;;0.30;0.30;;;;;;;4.59;76.27;99604.56;5018879;28;20316;-74
2021/12/08 10:47:49;;;;;;;0.30;0.30;;;;;;;4.73;75.76;99598.09;5000359;28;20317;-72
2021/12/08 10:55:57;;;;;;;0.30;0.30;;;;;;;5.74;71.20;99601.09;5001974;28;20137;-73
2021/12/08 10:58:24;;;;;;;0.30;0.30;;;;;;;5.92;71.54;99599.88;5020164;28;20029;-73
2021/12/08 11:00:52;;;;;;;0.30;0.30;;;;;;;6.02;71.01;99601.03;5020076;28;20041;-75
2021/12/08 11:03:17;;;;;;;0.30;0.30;;;;;;;6.24;70.40;99593.81;5020135;28;20087;-73
2021/12/08 11:05:56;;;;;;;0.20;0.20;;;;;;;6.29;69.88;99593.06;5018965;28;20029;-73
2021/12/08 11:08:37;;;;;;;0.33;0.33;;;;;;;6.28;70.04;99580.03;5020156;28;20037;-70
2021/12/08 11:11:10;;;;;;;0.30;0.30;;;;;;;6.10;70.47;99591.72;5017103;28;20299;-73
2021/12/08 11:13:41;;;;;;;0.20;0.20;;;;;;;5.95;70.74;99586.97;5003386;28;20273;-76
2021/12/08 11:16:17;;;;;;;0.40;0.40;;;;;;;5.96;71.17;99582.63;5033439;28;20026;-73
2021/12/08 11:18:57;;;;;;;0.40;0.40;;;;;;;5.83;70.73;99597.91;5034971;28;20307;-72
2021/12/08 11:21:32;;;;;;;0.40;0.40;;;;;;;5.83;71.47;99610.88;5016733;28;20041;-72
2021/12/08 11:23:59;;;;;;;0.40;0.40;;;;;;;5.73;71.74;99595.88;5003453;28;20022;-74
2021/12/08 11:26:27;;;;;;;0.30;0.30;;;;;;;5.76;71.93;99615.03;5001825;28;20141;-73
2021/12/08 11:29:06;;;;;;;0.30;0.30;;;;;;;5.82;71.97;99610.84;5015717;28;20037;-74
2021/12/08 11:31:42;;;;;;;0.30;0.30;;;;;;;5.76;70.68;99604.66;5024425;28;20034;-73
2021/12/08 11:34:14;;;;;;;0.30;0.30;;;;;;;5.83;71.54;99612.59;5019337;28;20036;-76
2021/12/08 11:36:39;;;;;;;0.40;0.40;;;;;;;5.76;71.45;99617.63;5018732;28;20030;-71
2021/12/08 11:39:17;;;;;;;0.30;0.30;;;;;;;5.88;71.04;99624.91;5019057;28;20108;-74
2021/12/08 11:41:54;;;;;;;0.30;0.30;;;;;;;6.11;69.99;99616.00;5015975;28;20676;-71
2021/12/08 11:44:25;;;;;;;0.30;0.30;;;;;;;6.30;71.06;99604.38;5018089;28;20041;-70
2021/12/08 11:46:57;;;;;;;0.30;0.30;;;;;;;6.58;69.65;99615.44;5003236;28;20324;-74
2021/12/08 11:49:23;;;;;;;0.30;0.30;;;;;;;6.73;69.16;99626.25;5011668;28;20071;-73
2021/12/08 11:51:56;;;;;;;0.30;0.30;;;;;;;6.75;69.36;99623.69;5014706;28;20033;-72
2021/12/08 11:54:29;;;;;;;0.30;0.30;;;;;;;6.76;68.92;99622.84;5018018;28;20273;-73
2021/12/08 11:57:11;;;;;;;0.30;0.30;;;;;;;6.84;68.89;99617.81;5017710;28;20656;-71
2021/12/08 12:00:09;;;;;;;0.30;0.30;;;;;;;6.84;67.41;99621.31;5016735;28;20076;-73
2021/12/08 12:02:51;;;;;;;0.30;0.30;;;;;;;6.86;67.20;99606.59;5016350;28;20029;-72
2021/12/08 12:05:27;;;;;;;0.37;0.37;;;;;;;6.84;67.39;99610.88;5012510;28;20285;-73
2021/12/08 12:07:53;;;;;;;0.30;0.30;;;;;;;6.67;68.03;99610.47;5017676;28;20029;-70
2021/12/08 12:10:21;;;;;;;0.40;0.40;;;;;;;6.61;68.87;99607.75;5017350;28;20053;-71
2021/12/08 12:12:47;;;;;;;0.30;0.30;;;;;;;6.61;68.03;99620.75;5016594;28;20028;-71
2021/12/08 12:15:15;;;;;;;0.30;0.30;;;;;;;6.32;68.54;99619.16;5009772;28;20026;-74
2021/12/08 12:17:41;;;;;;;0.30;0.30;;;;;;;6.22;70.63;99611.09;5016033;28;20105;-71
2021/12/08 12:20:27;;;;;;;0.30;0.30;;;;;;;6.30;69.14;99626.03;5008497;28;20018;-71
2021/12/08 12:23:08;;;;;;;0.40;0.40;;;;;;;6.32;69.70;99633.88;5015524;28;20061;-67
2021/12/08 12:25:55;;;;;;;0.40;0.40;;;;;;;6.35;68.42;99633.09;5016014;28;20022;-73
2021/12/08 12:28:38;;;;;;;0.30;0.30;;;;;;;6.25;68.86;99630.25;5016807;28;20033;-69
2021/12/08 12:31:19;;;;;;;0.40;0.40;;;;;;;6.31;68.41;99630.38;5014435;28;20035;-71
2021/12/08 12:33:46;;;;;;;0.30;0.30;;;;;;;6.35;68.63;99627.88;5014512;28;20029;-71
2021/12/08 12:36:31;;;;;;;0.30;0.30;;;;;;;6.15;69.64;99636.91;5008409;28;20281;-70
2021/12/08 12:39:17;;;;;;;0.30;0.30;;;;;;;6.24;70.26;99632.78;5010150;28;21443;-72
2021/12/08 12:41:44;;;;;;;0.30;0.30;;;;;;;6.23;69.93;99636.25;5013704;28;20030;-73
2021/12/08 12:44:21;;;;;;;0.20;0.20;;;;;;;6.17;70.64;99639.56;5015962;28;20042;-71
2021/12/08 12:47:09;;;;;;;0.37;0.37;;;;;;;6.13;70.32;99642.91;5014551;28;20026;-72
2021/12/08 12:49:39;;;;;;;0.40;0.40;;;;;;;5.89;70.99;99644.84;5015519;28;20065;-71
2021/12/08 12:52:07;;;;;;;0.30;0.30;;;;;;;5.73;73.14;99653.03;5014170;28;20026;-72
2021/12/08 12:54:33;;;;;;;0.40;0.40;;;;;;;5.68;72.19;99662.41;5016477;28;20042;-70
2021/12/08 12:56:59;;;;;;;0.30;0.30;;;;;;;5.66;72.23;99658.88;5015910;28;20362;-73
2021/12/08 12:59:36;;;;;;;0.43;0.43;;;;;;;5.80;71.76;99665.38;5016594;28;20045;-71
2021/12/08 13:02:21;;;;;;;0.30;0.30;;;;;;;5.73;71.89;99666.03;5017183;28;20129;-71
2021/12/08 13:04:51;;;;;;;0.30;0.30;;;;;;;5.65;72.23;99665.78;5017785;28;20040;-70
2021/12/08 13:07:17;;;;;;;0.30;0.30;;;;;;;5.58;72.47;99663.84;5017801;28;20042;-74
2021/12/08 13:09:51;;;;;;;0.30;0.30;;;;;;;5.62;72.85;99668.31;5016403;28;20026;-71
2021/12/08 13:12:27;;;;;;;0.20;0.20;;;;;;;5.64;72.21;99684.81;5016455;28;20057;-72
2021/12/08 13:15:11;;;;;;;0.40;0.40;;;;;;;5.52;73.02;99681.84;5017803;28;20037;-74
2021/12/08 13:17:37;;;;;;;0.40;0.40;;;;;;;5.38;73.09;99697.88;5017433;28;20045;-72
2021/12/08 13:20:06;;;;;;;0.30;0.30;;;;;;;5.32;73.04;99700.28;5017645;28;20030;-73
2021/12/08 13:22:45;;;;;;;0.37;0.37;;;;;;;5.27;73.36;99702.72;5017434;28;20030;-71
2021/12/08 13:25:42;;;;;;;0.30;0.30;;;;;;;5.27;73.86;99699.25;5017729;28;20030;-69
2021/12/08 13:28:15;;;;;;;0.30;0.30;;;;;;;5.25;74.11;99699.22;5016903;28;20396;-70
2021/12/08 13:30:45;;;;;;;0.30;0.30;;;;;;;5.26;73.81;99705.28;5017007;28;20046;-71
2021/12/08 13:33:29;;;;;;;0.33;0.33;;;;;;;5.23;73.91;99711.25;5017532;28;20032;-73
2021/12/08 13:35:56;;;;;;;0.20;0.20;;;;;;;5.23;74.97;99712.13;5017289;28;20391;-73
2021/12/08 13:38:22;;;;;;;0.30;0.30;;;;;;;5.23;74.79;99719.91;5017418;28;20022;-72
2021/12/08 13:40:53;;;;;;;0.30;0.30;;;;;;;5.24;74.38;99718.22;5016780;28;20300;-73
2021/12/08 13:43:56;;;;;;;0.20;0.20;;;;;;;5.27;73.76;99722.59;5017651;28;20026;-73
2021/12/08 13:46:36;;;;;;;0.30;0.30;;;;;;;5.33;73.74;99720.22;4941411;29;20069;-74
2021/12/08 13:49:24;;;;;;;0.30;0.30;;;;;;;5.36;73.39;99717.72;5011190;28;20034;-69
2021/12/08 13:52:01;;;;;;;0.30;0.30;;;;;;;5.34;73.83;99721.97;5009252;28;20447;-74
2021/12/08 13:54:33;;;;;;;0.30;0.30;;;;;;;5.31;74.14;99729.66;4997146;28;20452;-73